createdAt,value
2017-11-15T00:01:23.322Z,33.08
2017-11-15T00:03:52.575Z,28.62
2017-11-15T00:06:22.580Z,40.00
2017-11-15T00:08:51.837Z,37.28
2017-11-15T00:11:21.085Z,34.97
2017-11-15T00:13:50.324Z,33.13
2017-11-15T00:16:19.587Z,38.40
2017-11-15T00:18:48.831Z,33.20
2017-11-15T00:21:18.065Z,36.92
2017-11-15T00:23:47.421Z,32.72
2017-11-15T00:26:16.676Z,33.85
2017-11-15T00:28:45.918Z,32.63
2017-11-15T00:31:15.172Z,38.17
2017-11-15T00:33:44.403Z,28.80
2017-11-15T00:36:13.674Z,32.80
2017-11-15T00:38:42.909Z,36.20
2017-11-15T00:41:12.175Z,36.10
2017-11-15T00:43:41.422Z,34.95
2017-11-15T00:46:10.653Z,31.90
2017-11-15T00:48:39.888Z,36.67
2017-11-15T00:51:09.937Z,34.08
2017-11-15T00:53:39.172Z,37.47
2017-11-15T00:56:08.432Z,41.17
2017-11-15T00:58:37.706Z,34.20
2017-11-15T01:01:07.701Z,40.72
2017-11-15T01:03:36.988Z,34.60
2017-11-15T01:06:06.260Z,31.60
2017-11-15T01:08:35.508Z,27.40
2017-11-15T01:11:04.758Z,30.30
2017-11-15T01:13:34.014Z,36.10
2017-11-15T01:16:03.256Z,29.48
2017-11-15T01:18:33.295Z,34.75
2017-11-15T01:21:02.531Z,32.88
2017-11-15T01:23:31.784Z,33.53
2017-11-15T01:26:01.110Z,33.22
2017-11-15T01:28:30.348Z,36.22
2017-11-15T01:31:00.384Z,37.90
2017-11-15T01:33:29.648Z,40.35
2017-11-15T01:35:58.884Z,36.55
2017-11-15T01:38:28.149Z,34.25
2017-11-15T01:40:57.413Z,38.47
2017-11-15T01:43:26.653Z,52.50
2017-11-15T01:45:55.931Z,37.03
2017-11-15T01:48:25.622Z,39.25
2017-11-15T01:50:54.856Z,46.78
2017-11-15T01:53:24.119Z,48.42
2017-11-15T01:55:53.368Z,47.72
2017-11-15T01:58:23.448Z,53.00
2017-11-15T02:04:06.543Z,67.03
2017-11-15T02:06:35.793Z,80.65
2017-11-15T02:09:05.041Z,66.72
2017-11-15T02:11:34.302Z,58.47
2017-11-15T02:14:03.626Z,56.72
2017-11-15T02:16:32.845Z,74.05
2017-11-15T02:19:02.109Z,62.25
2017-11-15T02:21:31.391Z,63.97
2017-11-15T02:24:00.645Z,60.35
2017-11-15T02:26:29.915Z,56.30
2017-11-15T02:28:59.184Z,59.38
2017-11-15T02:31:28.429Z,54.40
2017-11-15T02:33:58.460Z,48.42
2017-11-15T02:36:27.723Z,45.97
2017-11-15T02:38:57.030Z,46.72
2017-11-15T02:41:26.397Z,42.42
2017-11-15T02:43:55.638Z,39.47
2017-11-15T02:46:25.693Z,47.00
2017-11-15T02:48:54.942Z,57.30
2017-11-15T02:51:24.187Z,46.70
2017-11-15T02:53:53.465Z,57.42
2017-11-15T02:56:23.482Z,54.13
2017-11-15T02:58:53.636Z,45.53
2017-11-15T03:01:23.001Z,46.90
2017-11-15T03:03:52.251Z,51.33
2017-11-15T03:06:21.505Z,52.38
2017-11-15T03:08:51.516Z,44.65
2017-11-15T03:11:21.536Z,58.92
2017-11-15T03:13:51.539Z,54.28
2017-11-15T03:16:26.760Z,49.20
2017-11-15T03:18:56.010Z,47.67
2017-11-15T03:21:25.261Z,49.40
2017-11-15T03:23:55.293Z,54.22
2017-11-15T03:26:24.545Z,54.42
2017-11-15T03:28:53.790Z,53.60
2017-11-15T03:31:23.768Z,58.72
2017-11-15T03:33:53.049Z,47.90
2017-11-15T03:36:22.337Z,56.10
2017-11-15T03:38:52.359Z,65.15
2017-11-15T03:41:22.402Z,56.00
2017-11-15T03:43:51.651Z,50.35
2017-11-15T03:46:20.900Z,76.15
2017-11-15T03:48:50.191Z,62.08
2017-11-15T03:51:20.464Z,60.25
2017-11-15T03:53:50.324Z,58.45
2017-11-15T03:56:19.603Z,60.78
2017-11-15T03:58:49.730Z,55.97
2017-11-15T04:01:19.764Z,60.67
2017-11-15T04:03:49.022Z,60.35
2017-11-15T04:06:18.273Z,56.78
2017-11-15T04:08:47.567Z,58.20
2017-11-15T04:11:16.860Z,63.75
2017-11-15T04:13:46.106Z,46.85
2017-11-15T04:16:15.369Z,48.65
2017-11-15T04:18:44.636Z,47.03
2017-11-15T04:21:14.643Z,49.33
2017-11-15T04:23:48.067Z,53.10
2017-11-15T04:26:18.065Z,52.47
2017-11-15T04:28:47.376Z,49.97
2017-11-15T04:31:16.620Z,45.40
2017-11-15T04:33:46.670Z,52.78
2017-11-15T04:36:15.918Z,58.00
2017-11-15T04:38:45.352Z,50.25
2017-11-15T04:41:14.665Z,54.55
2017-11-15T04:43:50.770Z,60.80
2017-11-15T04:46:20.817Z,55.72
2017-11-15T04:48:50.136Z,54.03
2017-11-15T04:51:19.394Z,56.00
2017-11-15T04:53:49.468Z,44.78
2017-11-15T04:56:21.483Z,56.17
2017-11-15T04:58:58.372Z,54.13
2017-11-15T05:01:27.631Z,52.13
2017-11-15T05:03:57.012Z,56.30
2017-11-15T05:06:26.268Z,53.03
2017-11-15T05:08:55.541Z,52.22
2017-11-15T05:11:24.775Z,47.13
2017-11-15T05:13:54.101Z,57.65
2017-11-15T05:16:23.377Z,48.83
2017-11-15T05:18:52.634Z,52.05
2017-11-15T05:21:21.933Z,57.17
2017-11-15T05:23:51.162Z,41.90
2017-11-15T05:26:21.200Z,46.72
2017-11-15T05:28:50.469Z,49.97
2017-11-15T05:31:20.549Z,42.95
2017-11-15T05:33:49.829Z,42.85
2017-11-15T05:36:19.097Z,45.25
2017-11-15T05:38:49.130Z,56.33
2017-11-15T05:41:19.566Z,49.33
2017-11-15T05:43:49.549Z,49.97
2017-11-15T05:46:18.837Z,49.03
2017-11-15T05:48:48.140Z,50.95
2017-11-15T05:51:17.449Z,43.60
2017-11-15T05:53:46.722Z,41.45
2017-11-15T05:56:15.977Z,41.67
2017-11-15T05:58:46.018Z,40.40
2017-11-15T06:01:18.373Z,48.53
2017-11-15T06:03:48.629Z,46.67
2017-11-15T06:06:19.237Z,44.00
2017-11-15T06:08:48.797Z,43.50
2017-11-15T06:11:18.388Z,44.20
2017-11-15T06:13:48.435Z,40.70
2017-11-15T06:16:17.695Z,50.42
2017-11-15T06:18:48.091Z,40.40
2017-11-15T06:21:17.404Z,43.63
2017-11-15T06:23:46.686Z,40.03
2017-11-15T06:26:18.215Z,40.30
2017-11-15T06:28:47.754Z,36.28
2017-11-15T06:31:17.223Z,39.35
2017-11-15T06:33:48.424Z,42.03
2017-11-15T06:36:17.976Z,34.35
2017-11-15T06:38:48.177Z,32.40
2017-11-15T06:41:17.552Z,33.58
2017-11-15T06:43:47.577Z,34.22
2017-11-15T06:46:16.834Z,38.15
2017-11-15T06:48:46.880Z,33.53
2017-11-15T06:51:16.191Z,34.60
2017-11-15T06:53:45.466Z,33.63
2017-11-15T06:56:15.496Z,43.53
2017-11-15T06:58:45.897Z,29.25
2017-11-15T07:01:15.280Z,39.53
2017-11-15T07:03:45.452Z,36.88
2017-11-15T07:06:14.707Z,36.42
2017-11-15T07:08:44.955Z,38.33
2017-11-15T07:11:14.711Z,35.33
2017-11-15T07:13:44.899Z,32.60
2017-11-15T07:16:14.177Z,33.28
2017-11-15T07:18:43.469Z,45.33
2017-11-15T07:21:12.716Z,34.33
2017-11-15T07:23:41.953Z,33.55
2017-11-15T07:26:11.287Z,40.55
2017-11-15T07:28:41.294Z,37.70
2017-11-15T07:31:10.590Z,46.25
2017-11-15T07:33:39.916Z,37.28
2017-11-15T07:36:09.980Z,37.10
2017-11-15T07:38:39.225Z,42.88
2017-11-15T07:41:09.404Z,39.38
2017-11-15T07:43:39.385Z,39.80
2017-11-15T07:46:09.454Z,46.78
2017-11-15T07:48:38.713Z,51.15
2017-11-15T07:51:13.927Z,37.65
2017-11-15T07:53:44.161Z,48.15
2017-11-15T07:56:14.188Z,46.50
2017-11-15T07:58:43.492Z,45.55
2017-11-15T08:01:12.774Z,41.53
2017-11-15T08:03:42.821Z,43.50
2017-11-15T08:06:12.161Z,46.20
2017-11-15T08:08:41.421Z,48.80
2017-11-15T08:11:10.678Z,44.30
2017-11-15T08:13:41.045Z,46.05
2017-11-15T08:16:10.346Z,45.83
2017-11-15T08:18:39.641Z,45.05
2017-11-15T08:21:08.939Z,41.67
2017-11-15T08:23:38.266Z,53.92
2017-11-15T08:26:07.506Z,51.30
2017-11-15T08:28:36.745Z,48.03
2017-11-15T08:31:06.040Z,57.28
2017-11-15T08:33:36.224Z,55.70
2017-11-15T08:36:05.507Z,45.00
2017-11-15T08:38:34.762Z,53.97
2017-11-15T08:41:04.009Z,51.97
2017-11-15T08:43:33.286Z,55.72
2017-11-15T08:46:02.687Z,52.92
2017-11-15T08:48:31.961Z,52.80
2017-11-15T08:51:02.016Z,61.00
2017-11-15T08:53:32.223Z,56.25
2017-11-15T08:56:01.590Z,58.33
2017-11-15T08:58:32.166Z,55.35
2017-11-15T09:01:03.550Z,68.75
2017-11-15T09:06:14.542Z,58.30
2017-11-15T09:08:56.292Z,59.33
2017-11-15T09:11:25.580Z,55.60
2017-11-15T09:13:55.048Z,56.95
2017-11-15T09:16:24.613Z,56.08
2017-11-15T09:19:01.196Z,55.00
2017-11-15T09:21:30.717Z,67.50
2017-11-15T09:24:03.307Z,57.17
2017-11-15T09:26:38.876Z,55.22
2017-11-15T09:29:08.378Z,58.30
2017-11-15T09:31:38.726Z,65.37
2017-11-15T09:34:08.775Z,62.30
2017-11-15T09:36:38.148Z,62.17
2017-11-15T09:39:08.213Z,66.68
2017-11-15T09:41:38.752Z,55.70
2017-11-15T09:44:07.990Z,54.08
2017-11-15T09:46:38.013Z,51.80
2017-11-15T09:49:08.025Z,55.55
2017-11-15T09:51:38.291Z,55.08
2017-11-15T09:54:07.568Z,56.65
2017-11-15T09:56:36.836Z,48.70
2017-11-15T09:59:06.139Z,46.78
2017-11-15T10:01:35.589Z,45.10
2017-11-15T10:04:05.763Z,39.17
2017-11-15T10:06:35.484Z,36.60
2017-11-15T10:09:06.079Z,37.58
2017-11-15T10:11:35.365Z,38.10
2017-11-15T10:14:05.413Z,34.53
2017-11-15T10:16:34.704Z,36.25
2017-11-15T10:19:03.972Z,35.50
2017-11-15T10:21:33.254Z,37.80
2017-11-15T10:24:02.485Z,39.70
2017-11-15T10:26:31.824Z,34.83
2017-11-15T10:29:02.355Z,37.35
2017-11-15T10:31:34.344Z,39.15
2017-11-15T10:34:04.351Z,36.63
2017-11-15T10:36:34.406Z,35.00
2017-11-15T10:39:03.695Z,38.97
2017-11-15T10:41:32.933Z,31.35
2017-11-15T10:44:02.317Z,33.72
2017-11-15T10:46:31.838Z,33.88
2017-11-15T10:49:02.029Z,35.60
2017-11-15T10:51:31.426Z,31.30
2017-11-15T10:54:00.840Z,30.37
2017-11-15T10:56:31.130Z,35.28
2017-11-15T10:59:01.205Z,29.65
2017-11-15T11:01:30.477Z,33.10
2017-11-15T11:03:59.749Z,32.85
2017-11-15T11:06:29.765Z,40.97
2017-11-15T11:09:02.073Z,37.25
2017-11-15T11:11:32.085Z,35.08
2017-11-15T11:14:01.358Z,30.40
2017-11-15T11:16:31.396Z,31.85
2017-11-15T11:19:01.400Z,30.45
2017-11-15T11:21:31.433Z,35.95
2017-11-15T11:24:00.706Z,26.35
2017-11-15T11:26:29.977Z,25.08
2017-11-15T11:28:59.222Z,25.52
2017-11-15T11:31:28.489Z,28.38
2017-11-15T11:33:57.728Z,29.25
2017-11-15T11:36:26.973Z,26.62
2017-11-15T11:38:56.229Z,27.40
2017-11-15T11:41:26.238Z,31.87
2017-11-15T11:43:56.265Z,27.60
2017-11-15T11:46:25.514Z,29.65
2017-11-15T11:48:54.753Z,30.60
2017-11-15T11:51:24.795Z,30.80
2017-11-15T11:53:54.028Z,33.97
2017-11-15T11:56:23.415Z,29.12
2017-11-15T11:58:52.667Z,32.45
2017-11-15T12:01:23.029Z,35.55
2017-11-15T12:03:52.340Z,30.10
2017-11-15T12:06:21.573Z,28.70
2017-11-15T12:08:50.813Z,28.40
2017-11-15T12:11:20.096Z,32.78
2017-11-15T12:13:50.104Z,36.22
2017-11-15T12:16:19.355Z,21.48
2017-11-15T12:18:48.630Z,26.52
2017-11-15T12:21:17.908Z,25.05
2017-11-15T12:23:47.948Z,27.00
2017-11-15T12:26:17.184Z,30.65
2017-11-15T12:28:46.446Z,25.25
2017-11-15T12:31:15.778Z,24.77
2017-11-15T12:33:45.021Z,22.35
2017-11-15T12:36:15.154Z,24.92
2017-11-15T12:38:45.217Z,20.98
2017-11-15T12:41:14.447Z,23.70
2017-11-15T12:43:43.718Z,22.37
2017-11-15T12:46:12.985Z,21.75
2017-11-15T12:48:42.218Z,20.27
2017-11-15T12:51:11.494Z,20.27
2017-11-15T12:53:40.743Z,24.37
2017-11-15T12:56:10.001Z,24.52
2017-11-15T12:58:40.037Z,25.92
2017-11-15T13:01:09.290Z,23.02
2017-11-15T13:03:40.141Z,20.75
2017-11-15T13:06:09.580Z,22.90
2017-11-15T13:08:38.913Z,22.45
2017-11-15T13:11:08.415Z,21.15
2017-11-15T13:13:45.220Z,18.85
2017-11-15T13:16:15.313Z,19.65
2017-11-15T13:18:47.097Z,19.05
2017-11-15T13:21:17.141Z,21.17
2017-11-15T13:23:50.203Z,21.67
2017-11-15T13:26:19.485Z,25.08
2017-11-15T13:28:48.741Z,19.87
2017-11-15T13:31:18.001Z,20.20
2017-11-15T13:33:47.271Z,18.73
2017-11-15T13:36:16.536Z,21.50
2017-11-15T13:38:45.823Z,18.48
2017-11-15T13:41:15.949Z,19.42
2017-11-15T13:43:45.216Z,17.45
2017-11-15T13:46:14.449Z,15.55
2017-11-15T13:48:43.750Z,14.00
2017-11-15T13:51:12.997Z,18.52
2017-11-15T13:53:42.270Z,15.75
2017-11-15T13:56:11.536Z,17.73
2017-11-15T13:58:40.772Z,16.95
2017-11-15T14:01:10.058Z,15.05
2017-11-15T14:03:40.088Z,15.50
2017-11-15T14:06:09.321Z,13.52
2017-11-15T14:09:09.902Z,18.23
2017-11-15T14:11:39.896Z,15.80
2017-11-15T14:14:09.934Z,16.67
2017-11-15T14:16:39.233Z,17.30
2017-11-15T14:19:08.480Z,18.75
2017-11-15T14:21:37.770Z,16.40
2017-11-15T14:24:07.005Z,13.73
2017-11-15T14:26:36.245Z,17.83
2017-11-15T14:29:05.518Z,16.10
2017-11-15T14:31:35.539Z,14.90
2017-11-15T14:34:05.558Z,13.27
2017-11-15T14:36:35.578Z,19.92
2017-11-15T14:39:05.576Z,28.67
2017-11-15T14:41:34.833Z,15.45
2017-11-15T14:44:04.080Z,15.35
2017-11-15T14:46:33.386Z,16.45
2017-11-15T14:49:03.393Z,13.15
2017-11-15T14:51:32.650Z,15.15
2017-11-15T14:54:01.914Z,16.05
2017-11-15T14:56:31.912Z,14.25
2017-11-15T14:59:01.192Z,11.98
2017-11-15T15:01:30.440Z,17.23
2017-11-15T15:04:00.469Z,14.30
2017-11-15T15:06:29.721Z,13.88
2017-11-15T15:08:59.048Z,13.23
2017-11-15T15:11:28.252Z,13.52
2017-11-15T15:13:58.288Z,15.05
2017-11-15T15:16:27.530Z,18.17
2017-11-15T15:18:56.761Z,15.95
2017-11-15T15:21:26.785Z,16.42
2017-11-15T15:23:56.024Z,19.52
2017-11-15T15:26:25.289Z,23.12
2017-11-15T15:28:55.300Z,19.92
2017-11-15T15:31:25.323Z,22.77
2017-11-15T15:33:54.597Z,22.92
2017-11-15T15:36:23.834Z,19.33
2017-11-15T15:38:53.198Z,16.25
2017-11-15T15:41:22.485Z,20.15
2017-11-15T15:43:52.360Z,18.60
2017-11-15T15:46:21.629Z,18.92
2017-11-15T15:48:50.899Z,20.25
2017-11-15T15:51:20.150Z,24.30
2017-11-15T15:53:49.431Z,18.20
2017-11-15T15:56:18.656Z,20.48
2017-11-15T15:58:47.905Z,21.15
2017-11-15T16:01:18.575Z,24.77
2017-11-15T16:03:47.801Z,24.10
2017-11-15T16:06:17.049Z,24.52
2017-11-15T16:08:46.337Z,22.25
2017-11-15T16:11:15.583Z,18.87
2017-11-15T16:13:44.828Z,23.55
2017-11-15T16:16:14.105Z,23.00
2017-11-15T16:18:43.365Z,22.95
2017-11-15T16:21:13.400Z,20.05
2017-11-15T16:23:42.644Z,21.12
2017-11-15T16:26:11.897Z,24.37
2017-11-15T16:28:41.207Z,21.80
2017-11-15T16:31:10.465Z,20.05
2017-11-15T16:33:39.733Z,29.70
2017-11-15T16:36:09.021Z,24.75
2017-11-15T16:38:38.291Z,31.90
2017-11-15T16:41:09.037Z,25.02
2017-11-15T16:43:39.041Z,23.55
2017-11-15T16:46:09.088Z,24.73
2017-11-15T16:48:38.409Z,28.70
2017-11-15T16:51:07.640Z,28.38
2017-11-15T16:53:36.899Z,28.83
2017-11-15T16:56:06.155Z,24.15
2017-11-15T16:58:35.458Z,26.10
2017-11-15T17:01:05.481Z,27.27
2017-11-15T17:03:35.507Z,30.45
2017-11-15T17:06:04.776Z,26.90
2017-11-15T17:08:34.054Z,27.60
2017-11-15T17:11:03.345Z,34.03
2017-11-15T17:13:32.584Z,29.37
2017-11-15T17:16:01.825Z,24.50
2017-11-15T17:18:31.111Z,24.25
2017-11-15T17:24:14.238Z,31.95
2017-11-15T17:26:44.239Z,26.75
2017-11-15T17:29:14.558Z,30.08
2017-11-15T17:31:43.837Z,34.88
2017-11-15T17:34:13.095Z,30.15
2017-11-15T17:36:43.056Z,39.45
2017-11-15T17:39:12.421Z,43.65
2017-11-15T17:41:41.653Z,42.78
2017-11-15T17:44:10.897Z,39.17
2017-11-15T17:46:40.925Z,40.17
2017-11-15T17:49:10.160Z,46.10
2017-11-15T17:51:39.419Z,39.25
2017-11-15T17:54:08.699Z,31.20
2017-11-15T17:56:37.941Z,31.17
2017-11-15T17:59:07.180Z,34.63
2017-11-15T18:01:36.440Z,27.80
2017-11-15T18:04:29.583Z,34.22
2017-11-15T18:06:58.854Z,32.47
2017-11-15T18:09:29.085Z,30.70
2017-11-15T18:11:58.664Z,30.85
2017-11-15T18:14:29.605Z,36.88
2017-11-15T18:16:58.889Z,36.55
2017-11-15T18:19:31.226Z,33.05
2017-11-15T18:22:01.999Z,32.28
2017-11-15T18:24:31.289Z,28.70
2017-11-15T18:27:00.556Z,35.08
2017-11-15T18:29:29.806Z,34.55
2017-11-15T18:31:59.128Z,32.92
2017-11-15T18:34:28.372Z,36.35
2017-11-15T18:36:57.641Z,36.25
2017-11-15T18:39:26.863Z,31.35
2017-11-15T18:41:56.873Z,30.05
2017-11-15T18:44:26.900Z,38.95
2017-11-15T18:46:56.921Z,28.30
2017-11-15T18:49:26.946Z,31.37
2017-11-15T18:51:56.253Z,33.65
2017-11-15T18:54:25.498Z,37.65
2017-11-15T18:56:54.742Z,29.98
2017-11-15T18:59:24.811Z,28.17
2017-11-15T19:01:54.125Z,36.33
2017-11-15T19:04:23.369Z,30.00
2017-11-15T19:06:53.474Z,32.40
2017-11-15T19:09:23.580Z,61.10
2017-11-15T19:11:52.896Z,32.10
2017-11-15T19:14:22.235Z,27.10
2017-11-15T19:16:51.633Z,24.40
2017-11-15T19:19:21.163Z,29.30
2017-11-15T19:21:50.689Z,27.65
2017-11-15T19:24:21.107Z,30.60
2017-11-15T19:26:50.636Z,36.70
2017-11-15T19:29:20.953Z,24.95
2017-11-15T19:31:50.507Z,27.33
2017-11-15T19:34:20.020Z,24.85
2017-11-15T19:36:49.674Z,29.25
2017-11-15T19:39:19.194Z,25.50
2017-11-15T19:41:49.545Z,24.98
2017-11-15T19:44:19.114Z,25.00
2017-11-15T19:46:48.632Z,24.35
2017-11-15T19:49:18.937Z,36.58
2017-11-15T19:51:48.519Z,23.12
2017-11-15T19:54:18.095Z,25.65
2017-11-15T19:56:47.633Z,25.50
2017-11-15T19:59:17.179Z,24.75
2017-11-15T20:01:48.300Z,23.58
2017-11-15T20:04:17.846Z,27.13
2017-11-15T20:06:47.410Z,27.17
2017-11-15T20:09:17.054Z,23.02
2017-11-15T20:11:47.386Z,24.02
2017-11-15T20:14:17.678Z,35.88
2017-11-15T20:16:47.217Z,34.15
2017-11-15T20:19:17.521Z,29.33
2017-11-15T20:21:47.061Z,27.52
2017-11-15T20:24:16.666Z,34.30
2017-11-15T20:26:46.281Z,38.80
2017-11-15T20:29:15.821Z,32.90
2017-11-15T20:31:45.345Z,35.42
2017-11-15T20:34:14.868Z,25.40
2017-11-15T20:36:45.261Z,28.65
2017-11-15T20:39:14.753Z,26.75
2017-11-15T20:41:44.258Z,28.65
2017-11-15T20:44:13.800Z,31.00
2017-11-15T20:46:43.270Z,27.90
2017-11-15T20:49:12.704Z,28.60
2017-11-15T20:51:42.082Z,35.65
2017-11-15T20:54:11.444Z,34.15
2017-11-15T20:56:41.526Z,33.80
2017-11-15T20:59:10.915Z,31.95
2017-11-15T21:01:40.221Z,37.33
2017-11-15T21:04:09.588Z,33.00
2017-11-15T21:06:39.665Z,38.42
2017-11-15T21:09:08.970Z,29.52
2017-11-15T21:11:38.226Z,34.05
2017-11-15T21:14:07.484Z,34.85
2017-11-15T21:16:36.715Z,34.42
2017-11-15T21:19:05.985Z,31.75
2017-11-15T21:21:36.009Z,29.42
2017-11-15T21:24:06.035Z,32.88
2017-11-15T21:26:35.274Z,30.45
2017-11-15T21:29:04.592Z,30.83
2017-11-15T21:31:33.830Z,37.72
2017-11-15T21:34:03.071Z,37.58
2017-11-15T21:36:32.476Z,39.45
2017-11-15T21:39:01.734Z,37.22
2017-11-15T21:41:30.976Z,41.78
2017-11-15T21:44:00.312Z,38.10
2017-11-15T21:46:29.557Z,40.33
2017-11-15T21:48:58.810Z,42.72
2017-11-15T21:51:28.065Z,40.58
2017-11-15T21:53:57.288Z,38.60
2017-11-15T21:56:26.676Z,41.83
2017-11-15T21:58:56.012Z,39.92
2017-11-15T22:01:25.234Z,44.55
2017-11-15T22:03:55.289Z,38.40
2017-11-15T22:06:24.536Z,44.35
2017-11-15T22:08:53.773Z,43.15
2017-11-15T22:11:23.067Z,41.15
2017-11-15T22:13:52.875Z,43.70
2017-11-15T22:16:22.909Z,38.97
2017-11-15T22:18:52.317Z,38.58
2017-11-15T22:21:21.662Z,42.40
2017-11-15T22:23:50.868Z,44.95
2017-11-15T22:26:20.139Z,48.40
2017-11-15T22:28:49.394Z,38.03
2017-11-15T22:31:19.446Z,38.08
2017-11-15T22:33:48.724Z,45.90
2017-11-15T22:36:17.966Z,51.92
2017-11-15T22:38:47.221Z,45.30
2017-11-15T22:41:16.519Z,44.03
2017-11-15T22:43:45.762Z,44.25
2017-11-15T22:46:15.023Z,45.10
2017-11-15T22:48:44.276Z,43.67
2017-11-15T22:51:13.977Z,40.15
2017-11-15T22:53:43.272Z,48.67
2017-11-15T22:56:12.513Z,40.58
2017-11-15T22:58:42.600Z,38.25
2017-11-15T23:01:11.845Z,41.45
2017-11-15T23:03:41.892Z,41.60
2017-11-15T23:06:11.117Z,44.22
2017-11-15T23:08:40.356Z,45.12
2017-11-15T23:11:10.385Z,46.70
2017-11-15T23:13:39.622Z,51.33
2017-11-15T23:16:09.540Z,38.63
2017-11-15T23:18:38.865Z,41.72
2017-11-15T23:21:08.145Z,38.35
2017-11-15T23:23:37.391Z,52.60
2017-11-15T23:26:07.439Z,41.95
2017-11-15T23:28:36.688Z,47.20
2017-11-15T23:31:05.928Z,45.55
2017-11-15T23:33:35.192Z,45.65
2017-11-15T23:36:04.448Z,44.92
2017-11-15T23:38:33.735Z,44.47
2017-11-15T23:41:03.034Z,38.13
2017-11-15T23:43:32.267Z,37.17
2017-11-15T23:46:01.513Z,39.65
2017-11-15T23:48:31.537Z,43.97
2017-11-15T23:51:00.778Z,45.72
2017-11-15T23:53:30.025Z,41.60
2017-11-15T23:56:00.070Z,40.42
2017-11-15T23:58:29.305Z,37.50
